Time,TemperatureF,DewpointF,PressureIn,WindDirection,WindDirectionDegrees,WindSpeedMPH,WindSpeedGustMPH,Humidity,HourlyPrecipIn,Conditions,Clouds,dailyrainin,SoftwareType,DateUTC
2013-06-23 00:00:00,64.1,60.8,30.09,SW,229,0.0,0.0,89,0.00,,,0.00,Wunderground v.1.15,2013-06-23 04:00:00,
2013-06-23 00:10:00,63.9,60.9,30.09,SW,229,0.0,0.0,90,0.00,,,0.00,Wunderground v.1.15,2013-06-23 04:10:00,
2013-06-23 00:15:00,63.8,61.1,30.10,SW,229,0.0,0.0,91,0.00,,,0.00,Wunderground v.1.15,2013-06-23 04:15:00,
2013-06-23 00:20:00,63.6,60.9,30.10,SW,229,0.0,0.0,91,0.00,,,0.00,Wunderground v.1.15,2013-06-23 04:20:00,
2013-06-23 00:30:00,63.4,60.7,30.10,SW,229,0.0,0.0,91,0.00,,,0.00,Wunderground v.1.15,2013-06-23 04:30:00,
2013-06-23 00:35:00,63.4,61.0,30.10,SW,229,0.0,0.0,92,0.00,,,0.00,Wunderground v.1.15,2013-06-23 04:35:00,
2013-06-23 00:40:00,63.3,60.9,30.10,SW,229,0.0,0.0,92,0.00,,,0.00,Wunderground v.1.15,2013-06-23 04:40:00,
2013-06-23 00:50:00,62.9,60.5,30.09,SW,229,0.0,0.0,92,0.00,,,0.00,Wunderground v.1.15,2013-06-23 04:50:00,
2013-06-23 00:55:00,62.8,60.1,30.09,SW,229,0.0,0.0,91,0.00,,,0.00,Wunderground v.1.15,2013-06-23 04:55:00,
2013-06-23 01:00:00,62.7,60.3,30.09,SW,229,0.0,0.0,92,0.00,,,0.00,Wunderground v.1.15,2013-06-23 05:00:00,
2013-06-23 01:10:00,62.5,60.1,30.09,SW,229,0.0,0.0,92,0.00,,,0.00,Wunderground v.1.15,2013-06-23 05:10:00,
2013-06-23 01:20:00,62.4,60.0,30.09,SW,229,0.0,0.0,92,0.00,,,0.00,Wunderground v.1.15,2013-06-23 05:20:00,
2013-06-23 01:25:00,62.3,59.9,30.10,SW,229,0.0,0.0,92,0.00,,,0.00,Wunderground v.1.15,2013-06-23 05:25:00,
2013-06-23 01:30:00,62.2,59.8,30.09,SW,229,0.0,0.0,92,0.00,,,0.00,Wunderground v.1.15,2013-06-23 05:30:00,
2013-06-23 01:40:00,61.9,59.5,30.09,SW,229,0.0,0.0,92,0.00,,,0.00,Wunderground v.1.15,2013-06-23 05:40:00,
2013-06-23 01:45:00,61.7,59.4,30.09,SW,229,0.0,0.0,92,0.00,,,0.00,Wunderground v.1.15,2013-06-23 05:45:00,
2013-06-23 01:50:00,61.7,59.4,30.09,SW,229,0.0,0.0,92,0.00,,,0.00,Wunderground v.1.15,2013-06-23 05:50:00,
2013-06-23 02:00:00,61.8,59.5,30.08,SW,229,0.0,0.0,92,0.00,,,0.00,Wunderground v.1.15,2013-06-23 06:00:00,
2013-06-23 02:10:00,61.7,59.4,30.08,SW,229,0.0,0.0,92,0.00,,,0.00,Wunderground v.1.15,2013-06-23 06:10:00,
2013-06-23 02:20:00,61.6,59.6,30.08,SW,229,0.0,0.0,93,0.00,,,0.00,Wunderground v.1.15,2013-06-23 06:20:00,
2013-06-23 02:25:00,61.5,59.5,30.08,SW,229,0.0,0.0,93,0.00,,,0.00,Wunderground v.1.15,2013-06-23 06:25:00,
2013-06-23 02:30:00,61.4,59.4,30.08,SW,229,0.0,0.0,93,0.00,,,0.00,Wunderground v.1.15,2013-06-23 06:30:00,
2013-06-23 02:40:00,61.3,59.3,30.08,SW,229,0.0,0.0,93,0.00,,,0.00,Wunderground v.1.15,2013-06-23 06:40:00,
2013-06-23 02:45:00,61.1,59.1,30.07,SW,229,0.0,0.0,93,0.00,,,0.00,Wunderground v.1.15,2013-06-23 06:45:00,
2013-06-23 02:50:00,61.1,59.1,30.07,SW,229,0.0,0.0,93,0.00,,,0.00,Wunderground v.1.15,2013-06-23 06:50:00,
2013-06-23 03:00:00,60.8,59.1,30.07,SW,229,0.0,0.0,94,0.00,,,0.00,Wunderground v.1.15,2013-06-23 07:00:00,
2013-06-23 03:10:00,60.6,58.9,30.07,SW,229,0.0,0.0,94,0.00,,,0.00,Wunderground v.1.15,2013-06-23 07:10:00,
2013-06-23 03:20:00,60.4,58.7,30.06,SW,229,0.0,0.0,94,0.00,,,0.00,Wunderground v.1.15,2013-06-23 07:20:00,
2013-06-23 03:25:00,60.4,59.0,30.06,SW,229,0.0,0.0,95,0.00,,,0.00,Wunderground v.1.15,2013-06-23 07:25:00,
2013-06-23 03:30:00,60.4,59.0,30.06,SW,229,0.0,0.0,95,0.00,,,0.00,Wunderground v.1.15,2013-06-23 07:30:00,
2013-06-23 03:35:00,60.3,58.9,30.06,SW,229,0.0,0.0,95,0.00,,,0.00,Wunderground v.1.15,2013-06-23 07:35:00,
2013-06-23 03:45:00,60.3,58.9,30.07,SW,229,0.0,0.0,95,0.00,,,0.00,Wunderground v.1.15,2013-06-23 07:45:00,
2013-06-23 03:50:00,60.2,58.8,30.06,SW,229,0.0,0.0,95,0.00,,,0.00,Wunderground v.1.15,2013-06-23 07:50:00,
2013-06-23 04:00:00,59.9,58.5,30.07,SW,229,0.0,0.0,95,0.00,,,0.00,Wunderground v.1.15,2013-06-23 08:00:00,
2013-06-23 04:10:00,59.8,58.7,30.07,SW,229,0.0,0.0,96,0.00,,,0.00,Wunderground v.1.15,2013-06-23 08:10:00,
2013-06-23 04:15:00,59.7,58.6,30.06,SW,229,0.0,0.0,96,0.00,,,0.00,Wunderground v.1.15,2013-06-23 08:15:00,
2013-06-23 04:25:00,59.6,58.5,30.07,SW,229,0.0,0.0,96,0.00,,,0.00,Wunderground v.1.15,2013-06-23 08:25:00,
2013-06-23 04:30:00,59.6,58.5,30.07,SW,229,0.0,0.0,96,0.00,,,0.00,Wunderground v.1.15,2013-06-23 08:30:00,
2013-06-23 04:35:00,59.5,58.4,30.06,SW,229,0.0,0.0,96,0.00,,,0.00,Wunderground v.1.15,2013-06-23 08:35:00,
2013-06-23 04:45:00,59.4,58.3,30.07,SW,229,0.0,0.0,96,0.00,,,0.00,Wunderground v.1.15,2013-06-23 08:45:00,
2013-06-23 04:50:00,59.3,58.4,30.07,SW,229,0.0,0.0,97,0.00,,,0.00,Wunderground v.1.15,2013-06-23 08:50:00,
2013-06-23 04:55:00,59.2,58.1,30.06,SW,229,0.0,0.0,96,0.00,,,0.00,Wunderground v.1.15,2013-06-23 08:55:00,
2013-06-23 05:10:00,59.0,58.2,30.07,SW,229,0.0,0.0,97,0.00,,,0.00,Wunderground v.1.15,2013-06-23 09:10:00,
2013-06-23 05:15:00,59.0,58.2,30.07,SW,229,0.0,0.0,97,0.00,,,0.00,Wunderground v.1.15,2013-06-23 09:15:00,
2013-06-23 05:20:00,59.0,58.2,30.07,SW,229,0.0,0.0,97,0.00,,,0.00,Wunderground v.1.15,2013-06-23 09:20:00,
2013-06-23 05:30:00,59.0,58.2,30.07,SW,229,0.0,0.0,97,0.00,,,0.00,Wunderground v.1.15,2013-06-23 09:30:00,
2013-06-23 05:35:00,59.0,58.2,30.07,SW,229,0.0,0.0,97,0.00,,,0.00,Wunderground v.1.15,2013-06-23 09:35:00,
2013-06-23 05:45:00,59.0,58.4,30.07,SW,229,0.0,0.0,98,0.00,,,0.00,Wunderground v.1.15,2013-06-23 09:45:00,
2013-06-23 05:50:00,59.0,58.4,30.07,SW,229,0.0,0.0,98,0.00,,,0.00,Wunderground v.1.15,2013-06-23 09:50:00,
2013-06-23 05:55:00,59.0,58.4,30.08,SW,229,0.0,0.0,98,0.00,,,0.00,Wunderground v.1.15,2013-06-23 09:55:00,
2013-06-23 06:00:00,59.1,58.5,30.08,SW,229,0.0,0.0,98,0.00,,,0.00,Wunderground v.1.15,2013-06-23 10:00:00,
2013-06-23 06:10:00,59.4,58.8,30.08,SW,229,0.0,0.0,98,0.00,,,0.00,Wunderground v.1.15,2013-06-23 10:10:00,
2013-06-23 06:15:00,59.4,58.8,30.08,SW,229,0.0,0.0,98,0.00,,,0.00,Wunderground v.1.15,2013-06-23 10:15:00,
2013-06-23 06:20:00,59.6,59.0,30.07,SW,229,0.0,0.0,98,0.00,,,0.00,Wunderground v.1.15,2013-06-23 10:20:00,
2013-06-23 06:30:00,59.8,59.2,30.07,SW,229,0.0,0.0,98,0.00,,,0.00,Wunderground v.1.15,2013-06-23 10:30:00,
2013-06-23 06:35:00,60.0,59.4,30.08,SW,229,0.0,0.0,98,0.00,,,0.00,Wunderground v.1.15,2013-06-23 10:35:00,
2013-06-23 06:40:00,60.2,59.6,30.08,SW,229,0.0,0.0,98,0.00,,,0.00,Wunderground v.1.15,2013-06-23 10:40:00,
2013-06-23 06:50:00,60.6,60.0,30.08,SW,229,0.0,0.0,98,0.00,,,0.00,Wunderground v.1.15,2013-06-23 10:50:00,
2013-06-23 06:55:00,60.9,60.3,30.08,SW,229,0.0,0.0,98,0.00,,,0.00,Wunderground v.1.15,2013-06-23 10:55:00,
2013-06-23 07:00:00,61.3,60.7,30.08,SW,229,0.0,0.0,98,0.00,,,0.00,Wunderground v.1.15,2013-06-23 11:00:00,
2013-06-23 07:10:00,62.6,62.0,30.08,SW,229,0.0,0.0,98,0.00,,,0.00,Wunderground v.1.15,2013-06-23 11:10:00,
2013-06-23 07:15:00,63.3,62.7,30.08,SW,229,0.0,0.0,98,0.00,,,0.00,Wunderground v.1.15,2013-06-23 11:15:00,
2013-06-23 07:20:00,64.3,63.7,30.08,SW,229,0.0,0.0,98,0.00,,,0.00,Wunderground v.1.15,2013-06-23 11:20:00,
2013-06-23 07:30:00,66.3,65.4,30.08,SW,218,1.0,1.0,97,0.00,,,0.00,Wunderground v.1.15,2013-06-23 11:30:00,
2013-06-23 07:35:00,67.4,65.9,30.08,SW,215,1.0,1.0,95,0.00,,,0.00,Wunderground v.1.15,2013-06-23 11:35:00,
2013-06-23 07:40:00,68.3,66.5,30.08,WSW,240,1.0,3.0,94,0.00,,,0.00,Wunderground v.1.15,2013-06-23 11:40:00,
2013-06-23 07:45:00,69.2,66.5,30.08,WSW,242,1.0,3.0,91,0.00,,,0.00,Wunderground v.1.15,2013-06-23 11:45:00,
2013-06-23 07:55:00,70.3,66.9,30.08,SW,220,1.0,1.0,89,0.00,,,0.00,Wunderground v.1.15,2013-06-23 11:55:00,
2013-06-23 08:00:00,70.7,67.3,30.08,SW,219,1.0,1.0,89,0.00,,,0.00,Wunderground v.1.15,2013-06-23 12:00:00,
2013-06-23 08:10:00,71.1,67.4,30.08,SW,215,2.0,2.0,88,0.00,,,0.00,Wunderground v.1.15,2013-06-23 12:10:00,
2013-06-23 08:15:00,71.3,67.6,30.08,SW,214,1.0,2.0,88,0.00,,,0.00,Wunderground v.1.15,2013-06-23 12:15:00,
2013-06-23 08:20:00,71.5,67.4,30.08,SSW,210,1.0,1.0,87,0.00,,,0.00,Wunderground v.1.15,2013-06-23 12:20:00,
2013-06-23 08:25:00,71.7,67.6,30.08,SW,218,1.0,3.0,87,0.00,,,0.00,Wunderground v.1.15,2013-06-23 12:25:00,
2013-06-23 08:35:00,72.4,68.0,30.09,SW,221,1.0,1.0,86,0.00,,,0.00,Wunderground v.1.15,2013-06-23 12:35:00,
2013-06-23 08:40:00,72.8,68.4,30.09,SW,233,1.0,1.0,86,0.00,,,0.00,Wunderground v.1.15,2013-06-23 12:40:00,
2013-06-23 08:45:00,73.1,68.3,30.09,SW,219,2.0,2.0,85,0.00,,,0.00,Wunderground v.1.15,2013-06-23 12:45:00,
2013-06-23 08:55:00,73.4,68.6,30.08,West,264,3.0,3.0,85,0.00,,,0.00,Wunderground v.1.15,2013-06-23 12:55:00,
2013-06-23 09:00:00,74.0,68.9,30.08,SW,230,2.0,2.0,84,0.00,,,0.00,Wunderground v.1.15,2013-06-23 13:00:00,
2013-06-23 09:10:00,74.3,68.8,30.08,SSW,213,2.0,3.0,83,0.00,,,0.00,Wunderground v.1.15,2013-06-23 13:10:00,
2013-06-23 09:15:00,74.6,69.1,30.08,SSW,209,2.0,4.0,83,0.00,,,0.00,Wunderground v.1.15,2013-06-23 13:15:00,
2013-06-23 09:20:00,75.0,69.8,30.08,SW,227,3.0,3.0,84,0.00,,,0.00,Wunderground v.1.15,2013-06-23 13:20:00,
2013-06-23 09:30:00,76.0,70.1,30.07,WSW,238,1.0,3.0,82,0.00,,,0.00,Wunderground v.1.15,2013-06-23 13:30:00,
2013-06-23 09:35:00,76.2,70.3,30.07,WSW,249,2.0,3.0,82,0.00,,,0.00,Wunderground v.1.15,2013-06-23 13:35:00,
2013-06-23 09:40:00,76.6,70.7,30.07,West,269,2.0,2.0,82,0.00,,,0.00,Wunderground v.1.15,2013-06-23 13:40:00,
2013-06-23 09:50:00,76.8,70.5,30.07,West,265,2.0,3.0,81,0.00,,,0.00,Wunderground v.1.15,2013-06-23 13:50:00,
2013-06-23 09:55:00,77.1,70.8,30.07,West,269,3.0,5.0,81,0.00,,,0.00,Wunderground v.1.15,2013-06-23 13:55:00,
2013-06-23 10:00:00,77.5,71.2,30.07,West,268,3.0,3.0,81,0.00,,,0.00,Wunderground v.1.15,2013-06-23 14:00:00,
2013-06-23 10:10:00,78.2,71.2,30.06,SW,221,2.0,3.0,79,0.00,,,0.00,Wunderground v.1.15,2013-06-23 14:10:00,
2013-06-23 10:15:00,78.3,71.2,30.06,SW,219,3.0,3.0,79,0.00,,,0.00,Wunderground v.1.15,2013-06-23 14:15:00,
2013-06-23 10:20:00,78.3,71.6,30.06,SSW,213,2.0,2.0,80,0.00,,,0.00,Wunderground v.1.15,2013-06-23 14:20:00,
2013-06-23 10:25:00,78.2,71.5,30.06,WSW,238,2.0,2.0,80,0.00,,,0.00,Wunderground v.1.15,2013-06-23 14:25:00,
2013-06-23 10:30:00,78.1,71.4,30.06,SW,214,2.0,2.0,80,0.00,,,0.00,Wunderground v.1.15,2013-06-23 14:30:00,
2013-06-23 10:40:00,78.3,71.6,30.06,WSW,240,2.0,8.0,80,0.00,,,0.00,Wunderground v.1.15,2013-06-23 14:40:00,
2013-06-23 10:50:00,78.6,71.5,30.05,WSW,238,3.0,3.0,79,0.00,,,0.00,Wunderground v.1.15,2013-06-23 14:50:00,
2013-06-23 11:00:00,79.4,71.9,30.06,WSW,238,3.0,6.0,78,0.00,,,0.00,Wunderground v.1.15,2013-06-23 15:00:00,
2013-06-23 11:10:00,80.0,71.8,30.06,SSW,196,3.0,4.0,76,0.00,,,0.00,Wunderground v.1.15,2013-06-23 15:10:00,
2013-06-23 11:15:00,80.4,72.1,30.05,South,186,4.0,4.0,76,0.00,,,0.00,Wunderground v.1.15,2013-06-23 15:15:00,
2013-06-23 11:25:00,81.6,72.9,30.05,West,264,3.0,3.0,75,0.00,,,0.00,Wunderground v.1.15,2013-06-23 15:25:00,
2013-06-23 11:30:00,81.8,72.3,30.05,SSW,210,3.0,3.0,73,0.00,,,0.00,Wunderground v.1.15,2013-06-23 15:30:00,
2013-06-23 11:35:00,81.8,72.3,30.05,SW,230,3.0,3.0,73,0.00,,,0.00,Wunderground v.1.15,2013-06-23 15:35:00,
2013-06-23 11:40:00,82.1,72.6,30.05,SW,220,2.0,3.0,73,0.00,,,0.00,Wunderground v.1.15,2013-06-23 15:40:00,
2013-06-23 11:50:00,82.8,72.0,30.05,WSW,250,4.0,4.0,70,0.00,,,0.00,Wunderground v.1.15,2013-06-23 15:50:00,
2013-06-23 11:55:00,83.2,72.4,30.04,SSW,207,3.0,5.0,70,0.00,,,0.00,Wunderground v.1.15,2013-06-23 15:55:00,
2013-06-23 12:10:00,83.7,72.0,30.04,SSW,194,2.0,2.0,68,0.00,,,0.00,Wunderground v.1.15,2013-06-23 16:10:00,
2013-06-23 12:15:00,83.8,71.7,30.04,West,261,2.0,3.0,67,0.00,,,0.00,Wunderground v.1.15,2013-06-23 16:15:00,
2013-06-23 12:20:00,84.1,72.0,30.04,SSW,211,3.0,7.0,67,0.00,,,0.00,Wunderground v.1.15,2013-06-23 16:20:00,
2013-06-23 12:30:00,84.6,71.5,30.04,WSW,240,3.0,5.0,65,0.00,,,0.00,Wunderground v.1.15,2013-06-23 16:30:00,
2013-06-23 12:40:00,85.3,70.3,30.04,WSW,244,4.0,4.0,61,0.00,,,0.00,Wunderground v.1.15,2013-06-23 16:40:00,
2013-06-23 12:45:00,85.8,70.3,30.03,SW,233,3.0,4.0,60,0.00,,,0.00,Wunderground v.1.15,2013-06-23 16:45:00,
2013-06-23 12:50:00,86.1,70.1,30.03,SW,219,2.0,3.0,59,0.00,,,0.00,Wunderground v.1.15,2013-06-23 16:50:00,
2013-06-23 13:00:00,86.5,70.0,30.03,SSW,199,2.0,2.0,58,0.00,,,0.00,Wunderground v.1.15,2013-06-23 17:00:00,
2013-06-23 13:10:00,86.6,68.5,30.02,WSW,257,2.0,5.0,55,0.00,,,0.00,Wunderground v.1.15,2013-06-23 17:10:00,
2013-06-23 13:15:00,87.1,71.5,30.02,West,261,2.0,5.0,60,0.00,,,0.00,Wunderground v.1.15,2013-06-23 17:15:00,
2013-06-23 13:20:00,87.7,71.6,30.02,SW,222,1.0,1.0,59,0.00,,,0.00,Wunderground v.1.15,2013-06-23 17:20:00,
2013-06-23 13:25:00,87.6,72.0,30.02,SW,233,1.0,1.0,60,0.00,,,0.00,Wunderground v.1.15,2013-06-23 17:25:00,
2013-06-23 13:30:00,87.7,69.0,30.02,WSW,246,1.0,7.0,54,0.00,,,0.00,Wunderground v.1.15,2013-06-23 17:30:00,
2013-06-23 13:40:00,87.6,70.5,30.01,WSW,252,1.0,1.0,57,0.00,,,0.00,Wunderground v.1.15,2013-06-23 17:40:00,
2013-06-23 13:45:00,87.8,70.1,30.01,SW,218,1.0,1.0,56,0.00,,,0.00,Wunderground v.1.15,2013-06-23 17:45:00,
2013-06-23 13:50:00,87.9,70.2,30.01,SW,215,2.0,2.0,56,0.00,,,0.00,Wunderground v.1.15,2013-06-23 17:50:00,
2013-06-23 13:55:00,87.8,69.1,30.01,SW,232,2.0,5.0,54,0.00,,,0.00,Wunderground v.1.15,2013-06-23 17:55:00,
2013-06-23 14:00:00,87.7,70.1,30.01,SW,214,2.0,2.0,56,0.00,,,0.00,Wunderground v.1.15,2013-06-23 18:00:00,
2013-06-23 14:10:00,87.6,70.0,30.00,SW,216,1.0,1.0,56,0.00,,,0.00,Wunderground v.1.15,2013-06-23 18:10:00,
2013-06-23 14:15:00,87.6,69.4,30.00,SW,232,1.0,1.0,55,0.00,,,0.00,Wunderground v.1.15,2013-06-23 18:15:00,
2013-06-23 14:20:00,87.9,69.2,30.00,SW,219,1.0,1.0,54,0.00,,,0.00,Wunderground v.1.15,2013-06-23 18:20:00,
2013-06-23 14:25:00,88.3,69.5,30.00,SW,219,1.0,2.0,54,0.00,,,0.00,Wunderground v.1.15,2013-06-23 18:25:00,
2013-06-23 14:35:00,88.2,68.4,30.00,South,182,1.0,1.0,52,0.00,,,0.00,Wunderground v.1.15,2013-06-23 18:35:00,
2013-06-23 14:40:00,88.0,69.3,30.00,SW,229,1.0,11.0,54,0.00,,,0.00,Wunderground v.1.15,2013-06-23 18:40:00,
2013-06-23 14:45:00,88.1,69.4,30.00,SW,234,1.0,11.0,54,0.00,,,0.00,Wunderground v.1.15,2013-06-23 18:45:00,
2013-06-23 14:55:00,88.5,68.6,30.00,WSW,244,2.0,2.0,52,0.00,,,0.00,Wunderground v.1.15,2013-06-23 18:55:00,
2013-06-23 15:00:00,88.8,69.5,29.99,SW,221,2.0,2.0,53,0.00,,,0.00,Wunderground v.1.15,2013-06-23 19:00:00,
2013-06-23 15:10:00,88.6,72.4,29.99,SSW,204,0.0,0.0,59,0.00,,,0.00,Wunderground v.1.15,2013-06-23 19:10:00,
2013-06-23 15:15:00,88.5,73.3,29.99,SSW,202,0.0,0.0,61,0.00,,,0.00,Wunderground v.1.15,2013-06-23 19:15:00,
2013-06-23 15:20:00,88.5,72.8,29.99,SSW,198,1.0,3.0,60,0.00,,,0.00,Wunderground v.1.15,2013-06-23 19:20:00,
2013-06-23 15:25:00,87.8,73.2,29.99,South,183,1.0,3.0,62,0.00,,,0.00,Wunderground v.1.15,2013-06-23 19:25:00,
2013-06-23 15:35:00,87.4,73.7,29.98,SW,221,0.0,0.0,64,0.00,,,0.00,Wunderground v.1.15,2013-06-23 19:35:00,
2013-06-23 15:40:00,87.7,73.5,29.98,SSW,208,1.0,6.0,63,0.00,,,0.00,Wunderground v.1.15,2013-06-23 19:40:00,
2013-06-23 15:50:00,87.5,73.3,29.98,South,186,0.0,1.0,63,0.00,,,0.00,Wunderground v.1.15,2013-06-23 19:50:00,
2013-06-23 15:55:00,87.3,74.1,29.98,SSW,203,0.0,1.0,65,0.00,,,0.00,Wunderground v.1.15,2013-06-23 19:55:00,
2013-06-23 16:00:00,87.1,73.4,29.98,SSW,196,0.0,0.0,64,0.00,,,0.00,Wunderground v.1.15,2013-06-23 20:00:00,
2013-06-23 16:10:00,87.5,73.8,29.98,SW,232,1.0,1.0,64,0.00,,,0.00,Wunderground v.1.15,2013-06-23 20:10:00,
2013-06-23 16:15:00,87.7,74.0,29.98,SW,215,1.0,1.0,64,0.00,,,0.00,Wunderground v.1.15,2013-06-23 20:15:00,
2013-06-23 16:20:00,87.7,74.0,29.97,SW,219,1.0,1.0,64,0.00,,,0.00,Wunderground v.1.15,2013-06-23 20:20:00,
2013-06-23 16:25:00,87.0,73.8,29.98,SSW,211,0.0,1.0,65,0.00,,,0.00,Wunderground v.1.15,2013-06-23 20:25:00,
2013-06-23 16:35:00,86.6,74.8,29.98,SSW,208,1.0,1.0,68,0.00,,,0.00,Wunderground v.1.15,2013-06-23 20:35:00,
2013-06-23 16:40:00,86.6,74.8,29.98,SSW,210,1.0,1.0,68,0.00,,,0.00,Wunderground v.1.15,2013-06-23 20:40:00,
2013-06-23 16:45:00,86.6,74.8,29.97,South,191,1.0,1.0,68,0.00,,,0.00,Wunderground v.1.15,2013-06-23 20:45:00,
2013-06-23 16:55:00,86.1,75.2,29.98,SW,232,1.0,2.0,70,0.00,,,0.00,Wunderground v.1.15,2013-06-23 20:55:00,
2013-06-23 17:00:00,85.9,75.4,29.98,WSW,249,2.0,2.0,71,0.00,,,0.00,Wunderground v.1.15,2013-06-23 21:00:00,
2013-06-23 17:10:00,85.9,75.0,29.97,South,186,1.0,1.0,70,0.00,,,0.00,Wunderground v.1.15,2013-06-23 21:10:00,
2013-06-23 17:15:00,85.7,75.6,29.97,SSW,211,1.0,1.0,72,0.00,,,0.00,Wunderground v.1.15,2013-06-23 21:15:00,
2013-06-23 17:25:00,85.6,74.7,29.98,WSW,256,1.0,3.0,70,0.00,,,0.00,Wunderground v.1.15,2013-06-23 21:25:00,
2013-06-23 17:30:00,85.1,75.1,29.97,SW,215,1.0,1.0,72,0.00,,,0.00,Wunderground v.1.15,2013-06-23 21:30:00,
2013-06-23 17:35:00,84.5,74.5,29.97,SW,214,0.0,1.0,72,0.00,,,0.00,Wunderground v.1.15,2013-06-23 21:35:00,
2013-06-23 17:45:00,84.2,74.6,29.97,SSW,200,1.0,1.0,73,0.00,,,0.00,Wunderground v.1.15,2013-06-23 21:45:00,
2013-06-23 17:50:00,84.2,74.6,29.97,SW,225,1.0,1.0,73,0.00,,,0.00,Wunderground v.1.15,2013-06-23 21:50:00,
2013-06-23 17:55:00,84.3,74.7,29.97,WSW,252,1.0,1.0,73,0.00,,,0.00,Wunderground v.1.15,2013-06-23 21:55:00,
2013-06-23 18:10:00,83.6,74.4,29.97,SE,144,1.0,2.0,74,0.00,,,0.00,Wunderground v.1.15,2013-06-23 22:10:00,
2013-06-23 18:20:00,83.1,74.4,29.97,SSW,197,0.0,0.0,75,0.00,,,0.00,Wunderground v.1.15,2013-06-23 22:20:00,
2013-06-23 18:25:00,82.6,73.5,29.97,SE,146,0.0,0.0,74,0.00,,,0.00,Wunderground v.1.15,2013-06-23 22:25:00,
2013-06-23 18:35:00,82.1,73.8,29.97,South,175,0.0,0.0,76,0.00,,,0.00,Wunderground v.1.15,2013-06-23 22:35:00,
2013-06-23 18:40:00,81.8,73.5,29.97,SE,129,0.0,0.0,76,0.00,,,0.00,Wunderground v.1.15,2013-06-23 22:40:00,
2013-06-23 18:50:00,81.7,73.8,29.97,South,191,1.0,1.0,77,0.00,,,0.00,Wunderground v.1.15,2013-06-23 22:50:00,
2013-06-23 18:55:00,81.7,73.8,29.97,SSW,203,1.0,1.0,77,0.00,,,0.00,Wunderground v.1.15,2013-06-23 22:55:00,
2013-06-23 19:00:00,81.6,74.1,29.97,South,185,1.0,2.0,78,0.00,,,0.00,Wunderground v.1.15,2013-06-23 23:00:00,
2013-06-23 19:10:00,81.0,73.9,29.97,West,260,1.0,1.0,79,0.00,,,0.00,Wunderground v.1.15,2013-06-23 23:10:00,
2013-06-23 19:15:00,80.8,73.7,29.97,SW,225,1.0,7.0,79,0.00,,,0.00,Wunderground v.1.15,2013-06-23 23:15:00,
2013-06-23 19:20:00,80.6,73.9,29.96,WSW,238,2.0,2.0,80,0.00,,,0.00,Wunderground v.1.15,2013-06-23 23:20:00,
2013-06-23 19:25:00,80.5,73.8,29.96,SW,226,1.0,2.0,80,0.00,,,0.00,Wunderground v.1.15,2013-06-23 23:25:00,
2013-06-23 19:35:00,80.0,73.6,29.97,West,276,1.0,1.0,81,0.00,,,0.00,Wunderground v.1.15,2013-06-23 23:35:00,
2013-06-23 19:40:00,79.8,73.4,29.97,SW,236,1.0,3.0,81,0.00,,,0.00,Wunderground v.1.15,2013-06-23 23:40:00,
2013-06-23 19:50:00,79.2,72.9,29.96,SSW,203,2.0,3.0,81,0.00,,,0.00,Wunderground v.1.15,2013-06-23 23:50:00,
2013-06-23 19:55:00,78.9,72.9,29.97,SW,218,2.0,3.0,82,0.00,,,0.00,Wunderground v.1.15,2013-06-23 23:55:00,
2013-06-23 20:10:00,78.2,72.3,29.97,WSW,238,2.0,2.0,82,0.00,,,0.00,Wunderground v.1.15,2013-06-24 00:10:00,
2013-06-23 20:15:00,78.0,72.1,29.98,SW,226,1.0,5.0,82,0.00,,,0.00,Wunderground v.1.15,2013-06-24 00:15:00,
2013-06-23 20:25:00,77.6,72.0,29.97,SW,226,0.0,1.0,83,0.00,,,0.00,Wunderground v.1.15,2013-06-24 00:25:00,
2013-06-23 20:30:00,77.4,71.8,29.97,West,265,0.0,0.0,83,0.00,,,0.00,Wunderground v.1.15,2013-06-24 00:30:00,
2013-06-23 20:35:00,77.2,72.0,29.97,SSW,208,1.0,1.0,84,0.00,,,0.00,Wunderground v.1.15,2013-06-24 00:35:00,
2013-06-23 20:40:00,77.0,71.8,29.98,SSW,211,0.0,2.0,84,0.00,,,0.00,Wunderground v.1.15,2013-06-24 00:40:00,
2013-06-23 20:50:00,76.4,71.6,29.98,SW,214,0.0,0.0,85,0.00,,,0.00,Wunderground v.1.15,2013-06-24 00:50:00,
2013-06-23 20:55:00,76.2,71.4,29.98,SW,215,0.0,0.0,85,0.00,,,0.00,Wunderground v.1.15,2013-06-24 00:55:00,
2013-06-23 21:10:00,75.7,71.2,29.98,SW,219,1.0,1.0,86,0.00,,,0.00,Wunderground v.1.15,2013-06-24 01:10:00,
2013-06-23 21:20:00,75.4,70.9,29.98,SW,219,1.0,1.0,86,0.00,,,0.00,Wunderground v.1.15,2013-06-24 01:20:00,
2013-06-23 21:25:00,75.1,71.0,29.98,SW,219,0.0,1.0,87,0.00,,,0.00,Wunderground v.1.15,2013-06-24 01:25:00,
2013-06-23 21:30:00,74.9,70.8,29.99,SW,220,0.0,0.0,87,0.00,,,0.00,Wunderground v.1.15,2013-06-24 01:30:00,
2013-06-23 21:35:00,74.7,70.9,29.99,SW,220,0.0,0.0,88,0.00,,,0.00,Wunderground v.1.15,2013-06-24 01:35:00,
2013-06-23 21:45:00,74.4,70.6,29.99,SW,221,0.0,0.0,88,0.00,,,0.00,Wunderground v.1.15,2013-06-24 01:45:00,
2013-06-23 21:50:00,74.2,70.7,29.99,SW,219,0.0,0.0,89,0.00,,,0.00,Wunderground v.1.15,2013-06-24 01:50:00,
2013-06-23 21:55:00,74.2,70.7,29.99,SW,220,0.0,1.0,89,0.00,,,0.00,Wunderground v.1.15,2013-06-24 01:55:00,
2013-06-23 22:10:00,73.9,70.5,29.99,SW,221,0.0,0.0,89,0.00,,,0.00,Wunderground v.1.15,2013-06-24 02:10:00,
2013-06-23 22:15:00,73.6,70.5,30.00,SW,221,0.0,1.0,90,0.00,,,0.00,Wunderground v.1.15,2013-06-24 02:15:00,
2013-06-23 22:25:00,73.2,70.1,30.00,SW,221,0.0,0.0,90,0.00,,,0.00,Wunderground v.1.15,2013-06-24 02:25:00,
2013-06-23 22:30:00,73.1,70.3,30.00,SW,221,0.0,0.0,91,0.00,,,0.00,Wunderground v.1.15,2013-06-24 02:30:00,
2013-06-23 22:35:00,73.0,70.2,30.00,SW,223,0.0,1.0,91,0.00,,,0.00,Wunderground v.1.15,2013-06-24 02:35:00,
2013-06-23 22:40:00,72.9,70.1,29.99,SW,223,0.0,0.0,91,0.00,,,0.00,Wunderground v.1.15,2013-06-24 02:40:00,
2013-06-23 22:50:00,72.6,70.1,29.99,SW,222,0.0,0.0,92,0.00,,,0.00,Wunderground v.1.15,2013-06-24 02:50:00,
2013-06-23 22:55:00,72.4,69.9,29.99,SW,222,0.0,0.0,92,0.00,,,0.00,Wunderground v.1.15,2013-06-24 02:55:00,
2013-06-23 23:10:00,72.0,69.9,29.98,SW,223,0.0,0.0,93,0.00,,,0.00,Wunderground v.1.15,2013-06-24 03:10:00,
2013-06-23 23:15:00,71.9,69.8,29.98,SW,223,0.0,0.0,93,0.00,,,0.00,Wunderground v.1.15,2013-06-24 03:15:00,
2013-06-23 23:20:00,71.8,69.7,29.98,SW,223,0.0,0.0,93,0.00,,,0.00,Wunderground v.1.15,2013-06-24 03:20:00,
2013-06-23 23:30:00,71.6,69.8,29.98,SW,222,0.0,0.0,94,0.00,,,0.00,Wunderground v.1.15,2013-06-24 03:30:00,
2013-06-23 23:35:00,71.5,69.7,29.98,SW,223,0.0,0.0,94,0.00,,,0.00,Wunderground v.1.15,2013-06-24 03:35:00,
2013-06-23 23:45:00,71.3,69.8,29.98,SW,222,0.0,1.0,95,0.00,,,0.00,Wunderground v.1.15,2013-06-24 03:45:00,
2013-06-23 23:50:00,71.3,69.8,29.98,SW,227,0.0,0.0,95,0.00,,,0.00,Wunderground v.1.15,2013-06-24 03:50:00,
2013-06-23 23:55:00,71.3,69.8,29.98,SW,227,0.0,0.0,95,0.00,,,0.00,Wunderground v.1.15,2013-06-24 03:55:00,